sensor_id;sensor_type;location;lat;lon;timestamp;P1;durP1;ratioP1;P2;durP2;ratioP2
67274;SDS011;55463;52.324;5.122;2023-07-31T00:00:03;5.85;;;2.60;;
67274;SDS011;55463;52.324;5.122;2023-07-31T00:02:29;7.35;;;2.08;;
67274;SDS011;55463;52.324;5.122;2023-07-31T00:04:55;6.53;;;2.15;;
67274;SDS011;55463;52.324;5.122;2023-07-31T00:07:20;5.85;;;2.38;;
67274;SDS011;55463;52.324;5.122;2023-07-31T00:09:45;12.00;;;2.35;;
67274;SDS011;55463;52.324;5.122;2023-07-31T00:12:14;16.05;;;2.78;;
67274;SDS011;55463;52.324;5.122;2023-07-31T00:14:39;11.23;;;2.90;;
67274;SDS011;55463;52.324;5.122;2023-07-31T00:17:04;7.55;;;2.90;;
67274;SDS011;55463;52.324;5.122;2023-07-31T00:19:30;20.67;;;3.55;;
67274;SDS011;55463;52.324;5.122;2023-07-31T00:21:55;16.10;;;3.30;;
67274;SDS011;55463;52.324;5.122;2023-07-31T00:24:21;10.55;;;2.78;;
67274;SDS011;55463;52.324;5.122;2023-07-31T00:26:46;13.50;;;3.83;;
67274;SDS011;55463;52.324;5.122;2023-07-31T00:29:11;15.00;;;3.38;;
67274;SDS011;55463;52.324;5.122;2023-07-31T00:31:37;10.02;;;3.88;;
67274;SDS011;55463;52.324;5.122;2023-07-31T00:34:02;9.15;;;3.30;;
67274;SDS011;55463;52.324;5.122;2023-07-31T00:36:27;14.30;;;3.28;;
67274;SDS011;55463;52.324;5.122;2023-07-31T00:38:53;17.15;;;3.50;;
67274;SDS011;55463;52.324;5.122;2023-07-31T00:41:18;9.68;;;3.88;;
67274;SDS011;55463;52.324;5.122;2023-07-31T00:43:43;8.65;;;3.38;;
67274;SDS011;55463;52.324;5.122;2023-07-31T00:46:09;12.38;;;3.00;;
67274;SDS011;55463;52.324;5.122;2023-07-31T00:48:34;10.27;;;3.30;;
67274;SDS011;55463;52.324;5.122;2023-07-31T00:51:01;7.13;;;3.17;;
67274;SDS011;55463;52.324;5.122;2023-07-31T00:53:26;5.60;;;3.08;;
67274;SDS011;55463;52.324;5.122;2023-07-31T00:55:52;9.43;;;2.97;;
67274;SDS011;55463;52.324;5.122;2023-07-31T00:58:18;12.75;;;3.88;;
67274;SDS011;55463;52.324;5.122;2023-07-31T01:00:43;10.35;;;3.63;;
67274;SDS011;55463;52.324;5.122;2023-07-31T01:03:09;9.55;;;3.30;;
67274;SDS011;55463;52.324;5.122;2023-07-31T01:09:14;10.68;;;3.28;;
67274;SDS011;55463;52.324;5.122;2023-07-31T01:11:27;10.55;;;3.22;;
67274;SDS011;55463;52.324;5.122;2023-07-31T01:13:55;14.30;;;3.58;;
67274;SDS011;55463;52.324;5.122;2023-07-31T01:16:20;9.82;;;3.17;;
67274;SDS011;55463;52.324;5.122;2023-07-31T01:18:45;12.07;;;3.70;;
67274;SDS011;55463;52.324;5.122;2023-07-31T01:27:21;11.15;;;3.28;;
67274;SDS011;55463;52.324;5.122;2023-07-31T01:30:24;14.95;;;3.88;;
67274;SDS011;55463;52.324;5.122;2023-07-31T01:32:43;26.45;;;4.53;;
67274;SDS011;55463;52.324;5.122;2023-07-31T01:35:12;21.75;;;5.57;;
67274;SDS011;55463;52.324;5.122;2023-07-31T01:37:38;16.77;;;4.28;;
67274;SDS011;55463;52.324;5.122;2023-07-31T01:40:04;15.73;;;4.18;;
67274;SDS011;55463;52.324;5.122;2023-07-31T01:42:30;15.23;;;4.50;;
67274;SDS011;55463;52.324;5.122;2023-07-31T01:44:55;16.33;;;4.80;;
67274;SDS011;55463;52.324;5.122;2023-07-31T01:47:21;16.80;;;5.28;;
67274;SDS011;55463;52.324;5.122;2023-07-31T01:49:46;21.50;;;4.95;;
67274;SDS011;55463;52.324;5.122;2023-07-31T01:52:13;19.95;;;5.22;;
67274;SDS011;55463;52.324;5.122;2023-07-31T01:54:38;24.40;;;5.85;;
67274;SDS011;55463;52.324;5.122;2023-07-31T01:57:03;17.60;;;5.90;;
67274;SDS011;55463;52.324;5.122;2023-07-31T01:59:29;18.20;;;5.28;;
67274;SDS011;55463;52.324;5.122;2023-07-31T02:01:54;22.08;;;6.30;;
67274;SDS011;55463;52.324;5.122;2023-07-31T02:04:20;19.90;;;5.40;;
67274;SDS011;55463;52.324;5.122;2023-07-31T02:06:45;22.25;;;6.72;;
67274;SDS011;55463;52.324;5.122;2023-07-31T02:09:10;28.88;;;6.60;;
67274;SDS011;55463;52.324;5.122;2023-07-31T02:11:36;30.10;;;6.60;;
67274;SDS011;55463;52.324;5.122;2023-07-31T02:14:01;30.45;;;6.60;;
67274;SDS011;55463;52.324;5.122;2023-07-31T02:16:26;26.77;;;5.97;;
67274;SDS011;55463;52.324;5.122;2023-07-31T02:18:52;30.27;;;6.82;;
67274;SDS011;55463;52.324;5.122;2023-07-31T02:21:17;35.67;;;7.35;;
67274;SDS011;55463;52.324;5.122;2023-07-31T02:23:42;27.77;;;6.78;;
67274;SDS011;55463;52.324;5.122;2023-07-31T02:26:08;31.90;;;7.60;;
67274;SDS011;55463;52.324;5.122;2023-07-31T02:28:36;26.20;;;6.85;;
67274;SDS011;55463;52.324;5.122;2023-07-31T02:31:02;33.55;;;7.75;;
67274;SDS011;55463;52.324;5.122;2023-07-31T02:33:27;25.58;;;7.18;;
67274;SDS011;55463;52.324;5.122;2023-07-31T02:35:53;26.20;;;7.40;;
67274;SDS011;55463;52.324;5.122;2023-07-31T02:38:18;32.35;;;8.02;;
67274;SDS011;55463;52.324;5.122;2023-07-31T02:40:43;28.85;;;7.50;;
67274;SDS011;55463;52.324;5.122;2023-07-31T02:43:12;36.00;;;7.97;;
67274;SDS011;55463;52.324;5.122;2023-07-31T02:45:37;32.65;;;7.60;;
67274;SDS011;55463;52.324;5.122;2023-07-31T02:48:03;32.90;;;7.10;;
67274;SDS011;55463;52.324;5.122;2023-07-31T02:50:28;34.58;;;7.57;;
67274;SDS011;55463;52.324;5.122;2023-07-31T02:52:54;33.30;;;7.20;;
67274;SDS011;55463;52.324;5.122;2023-07-31T02:55:19;28.60;;;6.90;;
67274;SDS011;55463;52.324;5.122;2023-07-31T02:57:44;27.92;;;7.60;;
67274;SDS011;55463;52.324;5.122;2023-07-31T03:00:10;27.15;;;8.13;;
67274;SDS011;55463;52.324;5.122;2023-07-31T03:02:35;33.38;;;8.35;;
67274;SDS011;55463;52.324;5.122;2023-07-31T03:05:01;41.13;;;8.30;;
67274;SDS011;55463;52.324;5.122;2023-07-31T03:07:26;41.58;;;7.78;;
67274;SDS011;55463;52.324;5.122;2023-07-31T03:09:52;30.38;;;8.20;;
67274;SDS011;55463;52.324;5.122;2023-07-31T03:12:18;27.73;;;6.40;;
67274;SDS011;55463;52.324;5.122;2023-07-31T03:14:44;40.53;;;7.43;;
67274;SDS011;55463;52.324;5.122;2023-07-31T03:17:10;30.23;;;7.30;;
67274;SDS011;55463;52.324;5.122;2023-07-31T03:19:35;28.30;;;6.55;;
67274;SDS011;55463;52.324;5.122;2023-07-31T03:22:00;26.50;;;6.70;;
67274;SDS011;55463;52.324;5.122;2023-07-31T03:24:26;36.85;;;7.88;;
67274;SDS011;55463;52.324;5.122;2023-07-31T03:26:51;31.60;;;7.20;;
67274;SDS011;55463;52.324;5.122;2023-07-31T03:29:16;33.45;;;7.93;;
67274;SDS011;55463;52.324;5.122;2023-07-31T03:31:42;35.20;;;7.57;;
67274;SDS011;55463;52.324;5.122;2023-07-31T03:34:07;26.17;;;6.35;;
67274;SDS011;55463;52.324;5.122;2023-07-31T03:36:33;31.65;;;7.07;;
67274;SDS011;55463;52.324;5.122;2023-07-31T03:38:58;33.15;;;8.00;;
67274;SDS011;55463;52.324;5.122;2023-07-31T03:41:23;34.50;;;7.55;;
67274;SDS011;55463;52.324;5.122;2023-07-31T03:43:49;27.92;;;7.43;;
67274;SDS011;55463;52.324;5.122;2023-07-31T03:46:20;39.97;;;8.18;;
67274;SDS011;55463;52.324;5.122;2023-07-31T03:48:46;30.08;;;7.72;;
67274;SDS011;55463;52.324;5.122;2023-07-31T03:51:12;30.88;;;7.55;;
67274;SDS011;55463;52.324;5.122;2023-07-31T03:53:37;23.10;;;7.47;;
67274;SDS011;55463;52.324;5.122;2023-07-31T03:56:03;30.45;;;7.15;;
67274;SDS011;55463;52.324;5.122;2023-07-31T03:58:28;25.00;;;6.80;;
67274;SDS011;55463;52.324;5.122;2023-07-31T04:00:53;33.65;;;7.13;;
67274;SDS011;55463;52.324;5.122;2023-07-31T04:03:19;26.15;;;7.05;;
67274;SDS011;55463;52.324;5.122;2023-07-31T04:05:44;38.53;;;7.60;;
67274;SDS011;55463;52.324;5.122;2023-07-31T04:08:10;33.78;;;7.30;;
67274;SDS011;55463;52.324;5.122;2023-07-31T04:10:35;28.63;;;7.28;;
67274;SDS011;55463;52.324;5.122;2023-07-31T04:13:01;29.33;;;7.72;;
67274;SDS011;55463;52.324;5.122;2023-07-31T04:15:26;33.10;;;6.75;;
67274;SDS011;55463;52.324;5.122;2023-07-31T04:17:51;31.65;;;7.97;;
67274;SDS011;55463;52.324;5.122;2023-07-31T04:20:17;33.63;;;8.10;;
67274;SDS011;55463;52.324;5.122;2023-07-31T04:22:42;34.22;;;8.20;;
67274;SDS011;55463;52.324;5.122;2023-07-31T04:25:07;37.78;;;8.95;;
67274;SDS011;55463;52.324;5.122;2023-07-31T04:27:33;26.05;;;6.72;;
67274;SDS011;55463;52.324;5.122;2023-07-31T04:29:58;31.83;;;6.43;;
67274;SDS011;55463;52.324;5.122;2023-07-31T04:32:24;32.38;;;7.53;;
67274;SDS011;55463;52.324;5.122;2023-07-31T04:34:49;36.60;;;7.95;;
67274;SDS011;55463;52.324;5.122;2023-07-31T04:37:14;30.02;;;7.45;;
67274;SDS011;55463;52.324;5.122;2023-07-31T04:39:40;33.63;;;7.07;;
67274;SDS011;55463;52.324;5.122;2023-07-31T04:42:05;33.08;;;9.23;;
67274;SDS011;55463;52.324;5.122;2023-07-31T04:44:31;37.92;;;7.32;;
67274;SDS011;55463;52.324;5.122;2023-07-31T04:46:56;29.00;;;7.20;;
67274;SDS011;55463;52.324;5.122;2023-07-31T04:49:21;29.27;;;7.95;;
67274;SDS011;55463;52.324;5.122;2023-07-31T04:51:47;29.42;;;7.03;;
67274;SDS011;55463;52.324;5.122;2023-07-31T04:54:12;26.50;;;6.85;;
67274;SDS011;55463;52.324;5.122;2023-07-31T04:56:40;28.75;;;6.82;;
67274;SDS011;55463;52.324;5.122;2023-07-31T04:59:06;27.17;;;7.47;;
67274;SDS011;55463;52.324;5.122;2023-07-31T05:01:31;20.60;;;5.90;;
67274;SDS011;55463;52.324;5.122;2023-07-31T05:03:57;23.42;;;5.75;;
67274;SDS011;55463;52.324;5.122;2023-07-31T05:06:22;20.45;;;5.43;;
67274;SDS011;55463;52.324;5.122;2023-07-31T05:08:47;23.20;;;5.85;;
67274;SDS011;55463;52.324;5.122;2023-07-31T05:11:13;21.50;;;6.07;;
67274;SDS011;55463;52.324;5.122;2023-07-31T05:13:38;22.15;;;5.90;;
67274;SDS011;55463;52.324;5.122;2023-07-31T05:16:03;17.27;;;5.70;;
67274;SDS011;55463;52.324;5.122;2023-07-31T05:18:29;15.20;;;5.32;;
67274;SDS011;55463;52.324;5.122;2023-07-31T05:20:54;13.15;;;5.85;;
67274;SDS011;55463;52.324;5.122;2023-07-31T05:23:19;16.75;;;5.25;;
67274;SDS011;55463;52.324;5.122;2023-07-31T05:25:45;11.18;;;4.65;;
67274;SDS011;55463;52.324;5.122;2023-07-31T05:28:11;13.13;;;4.20;;
67274;SDS011;55463;52.324;5.122;2023-07-31T05:30:37;11.32;;;4.25;;
67274;SDS011;55463;52.324;5.122;2023-07-31T05:33:03;13.45;;;4.53;;
67274;SDS011;55463;52.324;5.122;2023-07-31T05:35:28;13.13;;;3.90;;
67274;SDS011;55463;52.324;5.122;2023-07-31T05:37:53;12.85;;;3.90;;
67274;SDS011;55463;52.324;5.122;2023-07-31T05:40:19;8.02;;;3.50;;
67274;SDS011;55463;52.324;5.122;2023-07-31T05:42:44;8.63;;;3.40;;
67274;SDS011;55463;52.324;5.122;2023-07-31T05:45:09;9.73;;;3.65;;
67274;SDS011;55463;52.324;5.122;2023-07-31T05:47:35;6.78;;;3.40;;
67274;SDS011;55463;52.324;5.122;2023-07-31T05:50:00;4.43;;;2.85;;
67274;SDS011;55463;52.324;5.122;2023-07-31T05:52:26;5.70;;;3.28;;
67274;SDS011;55463;52.324;5.122;2023-07-31T05:54:51;7.03;;;2.80;;
67274;SDS011;55463;52.324;5.122;2023-07-31T05:57:17;4.38;;;2.50;;
67274;SDS011;55463;52.324;5.122;2023-07-31T05:59:42;9.15;;;2.92;;
67274;SDS011;55463;52.324;5.122;2023-07-31T06:02:08;4.68;;;2.63;;
67274;SDS011;55463;52.324;5.122;2023-07-31T06:04:33;8.10;;;2.92;;
67274;SDS011;55463;52.324;5.122;2023-07-31T06:06:58;5.13;;;2.85;;
67274;SDS011;55463;52.324;5.122;2023-07-31T06:09:24;5.93;;;2.70;;
67274;SDS011;55463;52.324;5.122;2023-07-31T06:11:50;6.75;;;2.88;;
67274;SDS011;55463;52.324;5.122;2023-07-31T06:14:16;6.57;;;2.60;;
67274;SDS011;55463;52.324;5.122;2023-07-31T06:16:41;6.38;;;2.70;;
67274;SDS011;55463;52.324;5.122;2023-07-31T06:19:07;9.65;;;2.90;;
67274;SDS011;55463;52.324;5.122;2023-07-31T06:21:32;6.68;;;2.40;;
67274;SDS011;55463;52.324;5.122;2023-07-31T06:23:58;4.70;;;2.53;;
67274;SDS011;55463;52.324;5.122;2023-07-31T06:26:23;5.28;;;2.75;;
67274;SDS011;55463;52.324;5.122;2023-07-31T06:28:49;6.88;;;2.80;;
67274;SDS011;55463;52.324;5.122;2023-07-31T06:31:14;5.90;;;2.60;;
67274;SDS011;55463;52.324;5.122;2023-07-31T06:33:39;4.60;;;2.58;;
67274;SDS011;55463;52.324;5.122;2023-07-31T06:36:05;4.63;;;2.60;;
67274;SDS011;55463;52.324;5.122;2023-07-31T06:38:31;4.53;;;2.83;;
67274;SDS011;55463;52.324;5.122;2023-07-31T06:40:56;8.45;;;2.70;;
67274;SDS011;55463;52.324;5.122;2023-07-31T06:43:21;6.30;;;2.60;;
67274;SDS011;55463;52.324;5.122;2023-07-31T06:45:47;3.63;;;2.38;;
67274;SDS011;55463;52.324;5.122;2023-07-31T06:48:15;5.82;;;2.85;;
67274;SDS011;55463;52.324;5.122;2023-07-31T06:50:40;3.33;;;2.45;;
67274;SDS011;55463;52.324;5.122;2023-07-31T06:53:09;3.38;;;2.33;;
67274;SDS011;55463;52.324;5.122;2023-07-31T06:55:34;5.95;;;2.60;;
67274;SDS011;55463;52.324;5.122;2023-07-31T06:58:00;6.60;;;2.58;;
67274;SDS011;55463;52.324;5.122;2023-07-31T07:00:25;3.05;;;2.17;;
67274;SDS011;55463;52.324;5.122;2023-07-31T07:02:50;5.95;;;2.42;;
67274;SDS011;55463;52.324;5.122;2023-07-31T07:05:16;5.95;;;2.50;;
67274;SDS011;55463;52.324;5.122;2023-07-31T07:07:42;3.17;;;2.28;;
67274;SDS011;55463;52.324;5.122;2023-07-31T07:10:08;2.63;;;2.10;;
67274;SDS011;55463;52.324;5.122;2023-07-31T07:12:34;4.68;;;2.10;;
67274;SDS011;55463;52.324;5.122;2023-07-31T07:14:59;4.80;;;1.83;;
67274;SDS011;55463;52.324;5.122;2023-07-31T07:17:26;3.30;;;1.88;;
67274;SDS011;55463;52.324;5.122;2023-07-31T07:19:52;1.80;;;1.70;;
67274;SDS011;55463;52.324;5.122;2023-07-31T07:22:21;3.45;;;2.10;;
67274;SDS011;55463;52.324;5.122;2023-07-31T07:24:46;2.22;;;2.00;;
67274;SDS011;55463;52.324;5.122;2023-07-31T07:27:12;2.10;;;1.90;;
67274;SDS011;55463;52.324;5.122;2023-07-31T07:29:37;2.05;;;1.80;;
67274;SDS011;55463;52.324;5.122;2023-07-31T07:32:03;2.13;;;2.00;;
67274;SDS011;55463;52.324;5.122;2023-07-31T07:34:29;2.15;;;1.92;;
67274;SDS011;55463;52.324;5.122;2023-07-31T07:36:54;2.28;;;1.60;;
67274;SDS011;55463;52.324;5.122;2023-07-31T07:39:20;3.20;;;1.50;;
67274;SDS011;55463;52.324;5.122;2023-07-31T07:41:46;1.40;;;1.30;;
67274;SDS011;55463;52.324;5.122;2023-07-31T07:44:11;1.50;;;1.40;;
67274;SDS011;55463;52.324;5.122;2023-07-31T07:46:37;3.45;;;1.90;;
67274;SDS011;55463;52.324;5.122;2023-07-31T07:49:02;1.55;;;1.42;;
67274;SDS011;55463;52.324;5.122;2023-07-31T07:51:28;1.40;;;1.30;;
67274;SDS011;55463;52.324;5.122;2023-07-31T07:53:55;1.17;;;1.17;;
67274;SDS011;55463;52.324;5.122;2023-07-31T07:56:21;1.10;;;1.10;;
67274;SDS011;55463;52.324;5.122;2023-07-31T07:58:48;1.67;;;1.10;;
67274;SDS011;55463;52.324;5.122;2023-07-31T08:01:14;1.10;;;1.10;;
67274;SDS011;55463;52.324;5.122;2023-07-31T08:03:40;1.15;;;1.15;;
67274;SDS011;55463;52.324;5.122;2023-07-31T08:06:05;1.35;;;1.25;;
67274;SDS011;55463;52.324;5.122;2023-07-31T08:08:31;1.58;;;1.27;;
67274;SDS011;55463;52.324;5.122;2023-07-31T08:10:56;1.50;;;1.45;;
67274;SDS011;55463;52.324;5.122;2023-07-31T08:13:21;1.20;;;1.20;;
67274;SDS011;55463;52.324;5.122;2023-07-31T08:15:47;1.00;;;1.00;;
67274;SDS011;55463;52.324;5.122;2023-07-31T08:18:12;1.10;;;1.10;;
67274;SDS011;55463;52.324;5.122;2023-07-31T08:20:37;0.90;;;0.90;;
67274;SDS011;55463;52.324;5.122;2023-07-31T08:23:03;1.50;;;1.40;;
67274;SDS011;55463;52.324;5.122;2023-07-31T08:25:29;1.10;;;1.10;;
67274;SDS011;55463;52.324;5.122;2023-07-31T08:27:55;0.95;;;0.88;;
67274;SDS011;55463;52.324;5.122;2023-07-31T08:30:20;0.77;;;0.77;;
67274;SDS011;55463;52.324;5.122;2023-07-31T08:32:46;3.13;;;0.95;;
67274;SDS011;55463;52.324;5.122;2023-07-31T08:35:11;1.42;;;0.90;;
67274;SDS011;55463;52.324;5.122;2023-07-31T08:37:37;1.08;;;1.08;;
67274;SDS011;55463;52.324;5.122;2023-07-31T08:40:03;0.80;;;0.80;;
67274;SDS011;55463;52.324;5.122;2023-07-31T08:42:30;0.95;;;0.95;;
67274;SDS011;55463;52.324;5.122;2023-07-31T08:44:55;0.90;;;0.90;;
67274;SDS011;55463;52.324;5.122;2023-07-31T08:47:21;1.20;;;1.08;;
67274;SDS011;55463;52.324;5.122;2023-07-31T08:49:48;1.00;;;1.00;;
67274;SDS011;55463;52.324;5.122;2023-07-31T08:52:15;1.15;;;1.15;;
67274;SDS011;55463;52.324;5.122;2023-07-31T08:54:40;1.00;;;1.00;;
67274;SDS011;55463;52.324;5.122;2023-07-31T08:57:06;1.30;;;1.30;;
67274;SDS011;55463;52.324;5.122;2023-07-31T08:59:38;0.90;;;0.90;;
67274;SDS011;55463;52.324;5.122;2023-07-31T09:02:05;0.90;;;0.90;;
67274;SDS011;55463;52.324;5.122;2023-07-31T09:04:33;1.13;;;0.93;;
67274;SDS011;55463;52.324;5.122;2023-07-31T09:07:02;0.90;;;0.90;;
67274;SDS011;55463;52.324;5.122;2023-07-31T09:09:29;0.80;;;0.80;;
67274;SDS011;55463;52.324;5.122;2023-07-31T09:11:57;1.10;;;1.00;;
67274;SDS011;55463;52.324;5.122;2023-07-31T09:14:24;0.82;;;0.82;;
67274;SDS011;55463;52.324;5.122;2023-07-31T09:16:51;1.10;;;0.90;;
67274;SDS011;55463;52.324;5.122;2023-07-31T09:19:31;1.00;;;1.00;;
67274;SDS011;55463;52.324;5.122;2023-07-31T09:21:59;1.02;;;1.02;;
67274;SDS011;55463;52.324;5.122;2023-07-31T09:24:28;1.55;;;1.30;;
67274;SDS011;55463;52.324;5.122;2023-07-31T09:26:55;2.08;;;1.40;;
67274;SDS011;55463;52.324;5.122;2023-07-31T09:29:21;7.40;;;1.40;;
67274;SDS011;55463;52.324;5.122;2023-07-31T09:31:47;1.88;;;1.70;;
67274;SDS011;55463;52.324;5.122;2023-07-31T09:34:12;9.45;;;2.05;;
67274;SDS011;55463;52.324;5.122;2023-07-31T09:36:42;7.90;;;2.17;;
67274;SDS011;55463;52.324;5.122;2023-07-31T09:39:29;9.85;;;2.15;;
67274;SDS011;55463;52.324;5.122;2023-07-31T09:41:55;7.68;;;1.90;;
67274;SDS011;55463;52.324;5.122;2023-07-31T09:44:21;9.45;;;2.10;;
67274;SDS011;55463;52.324;5.122;2023-07-31T09:46:47;11.93;;;2.15;;
67274;SDS011;55463;52.324;5.122;2023-07-31T09:49:13;8.48;;;2.20;;
67274;SDS011;55463;52.324;5.122;2023-07-31T09:51:41;6.60;;;2.28;;
67274;SDS011;55463;52.324;5.122;2023-07-31T09:56:46;8.15;;;2.40;;
67274;SDS011;55463;52.324;5.122;2023-07-31T09:59:17;7.53;;;2.47;;
67274;SDS011;55463;52.324;5.122;2023-07-31T10:01:45;14.45;;;2.88;;
67274;SDS011;55463;52.324;5.122;2023-07-31T10:04:11;7.57;;;2.80;;
67274;SDS011;55463;52.324;5.122;2023-07-31T10:06:38;13.10;;;3.00;;
67274;SDS011;55463;52.324;5.122;2023-07-31T10:09:08;11.20;;;2.60;;
67274;SDS011;55463;52.324;5.122;2023-07-31T10:11:38;14.93;;;3.00;;
67274;SDS011;55463;52.324;5.122;2023-07-31T10:14:08;10.63;;;3.10;;
67274;SDS011;55463;52.324;5.122;2023-07-31T10:16:38;12.90;;;2.95;;
67274;SDS011;55463;52.324;5.122;2023-07-31T10:19:04;12.70;;;3.05;;
67274;SDS011;55463;52.324;5.122;2023-07-31T10:21:31;15.18;;;3.17;;
67274;SDS011;55463;52.324;5.122;2023-07-31T10:24:00;11.85;;;3.15;;
67274;SDS011;55463;52.324;5.122;2023-07-31T10:26:28;9.43;;;2.92;;
67274;SDS011;55463;52.324;5.122;2023-07-31T10:28:55;16.08;;;2.92;;
67274;SDS011;55463;52.324;5.122;2023-07-31T10:31:22;16.27;;;3.20;;
67274;SDS011;55463;52.324;5.122;2023-07-31T10:33:48;11.45;;;2.78;;
67274;SDS011;55463;52.324;5.122;2023-07-31T10:36:14;13.38;;;3.10;;
67274;SDS011;55463;52.324;5.122;2023-07-31T10:38:42;17.50;;;3.42;;
67274;SDS011;55463;52.324;5.122;2023-07-31T10:41:10;9.63;;;2.80;;
67274;SDS011;55463;52.324;5.122;2023-07-31T10:43:36;10.63;;;2.60;;
67274;SDS011;55463;52.324;5.122;2023-07-31T10:46:06;8.45;;;2.38;;
67274;SDS011;55463;52.324;5.122;2023-07-31T10:48:37;13.18;;;2.85;;
67274;SDS011;55463;52.324;5.122;2023-07-31T10:51:08;9.25;;;2.40;;
67274;SDS011;55463;52.324;5.122;2023-07-31T10:53:37;11.27;;;2.70;;
67274;SDS011;55463;52.324;5.122;2023-07-31T10:56:09;9.95;;;2.92;;
67274;SDS011;55463;52.324;5.122;2023-07-31T10:58:40;9.40;;;2.67;;
67274;SDS011;55463;52.324;5.122;2023-07-31T11:01:09;12.13;;;2.63;;
67274;SDS011;55463;52.324;5.122;2023-07-31T11:03:44;12.68;;;2.85;;
67274;SDS011;55463;52.324;5.122;2023-07-31T11:06:20;10.98;;;2.95;;
67274;SDS011;55463;52.324;5.122;2023-07-31T11:08:47;8.20;;;2.70;;
67274;SDS011;55463;52.324;5.122;2023-07-31T11:11:14;9.25;;;2.85;;
67274;SDS011;55463;52.324;5.122;2023-07-31T11:13:45;8.15;;;3.00;;
67274;SDS011;55463;52.324;5.122;2023-07-31T11:16:27;9.40;;;2.90;;
67274;SDS011;55463;52.324;5.122;2023-07-31T11:18:52;12.82;;;3.20;;
67274;SDS011;55463;52.324;5.122;2023-07-31T11:21:21;7.57;;;2.95;;
67274;SDS011;55463;52.324;5.122;2023-07-31T11:23:48;10.90;;;3.03;;
67274;SDS011;55463;52.324;5.122;2023-07-31T11:26:15;11.63;;;2.65;;
67274;SDS011;55463;52.324;5.122;2023-07-31T11:28:50;12.88;;;3.15;;
67274;SDS011;55463;52.324;5.122;2023-07-31T11:31:16;10.35;;;3.15;;
67274;SDS011;55463;52.324;5.122;2023-07-31T11:33:42;14.77;;;3.40;;
67274;SDS011;55463;52.324;5.122;2023-07-31T11:36:19;10.52;;;3.15;;
67274;SDS011;55463;52.324;5.122;2023-07-31T11:39:03;11.70;;;3.20;;
67274;SDS011;55463;52.324;5.122;2023-07-31T11:41:40;10.45;;;3.58;;
67274;SDS011;55463;52.324;5.122;2023-07-31T11:44:06;11.00;;;3.58;;
67274;SDS011;55463;52.324;5.122;2023-07-31T11:46:31;9.07;;;3.55;;
67274;SDS011;55463;52.324;5.122;2023-07-31T11:49:06;12.27;;;3.83;;
67274;SDS011;55463;52.324;5.122;2023-07-31T11:51:32;9.48;;;3.65;;
67274;SDS011;55463;52.324;5.122;2023-07-31T11:53:58;13.88;;;2.92;;
67274;SDS011;55463;52.324;5.122;2023-07-31T11:56:26;8.93;;;3.40;;
67274;SDS011;55463;52.324;5.122;2023-07-31T11:58:53;9.15;;;3.60;;
67274;SDS011;55463;52.324;5.122;2023-07-31T12:01:32;9.85;;;3.47;;
67274;SDS011;55463;52.324;5.122;2023-07-31T12:03:58;12.68;;;3.10;;
67274;SDS011;55463;52.324;5.122;2023-07-31T12:06:32;13.55;;;3.03;;
67274;SDS011;55463;52.324;5.122;2023-07-31T12:09:05;4.05;;;2.20;;
67274;SDS011;55463;52.324;5.122;2023-07-31T12:11:44;11.85;;;2.95;;
67274;SDS011;55463;52.324;5.122;2023-07-31T12:14:28;11.25;;;3.08;;
67274;SDS011;55463;52.324;5.122;2023-07-31T12:16:58;12.48;;;3.25;;
67274;SDS011;55463;52.324;5.122;2023-07-31T12:19:32;12.18;;;3.25;;
67274;SDS011;55463;52.324;5.122;2023-07-31T12:22:00;18.83;;;3.53;;
67274;SDS011;55463;52.324;5.122;2023-07-31T12:24:35;7.78;;;2.72;;
67274;SDS011;55463;52.324;5.122;2023-07-31T12:27:12;14.60;;;3.70;;
67274;SDS011;55463;52.324;5.122;2023-07-31T12:30:00;8.10;;;2.90;;
67274;SDS011;55463;52.324;5.122;2023-07-31T12:32:25;13.35;;;3.30;;
67274;SDS011;55463;52.324;5.122;2023-07-31T12:34:53;19.38;;;4.82;;
67274;SDS011;55463;52.324;5.122;2023-07-31T12:37:34;12.32;;;2.40;;
67274;SDS011;55463;52.324;5.122;2023-07-31T12:42:30;12.80;;;2.58;;
67274;SDS011;55463;52.324;5.122;2023-07-31T12:47:52;8.00;;;2.45;;
67274;SDS011;55463;52.324;5.122;2023-07-31T12:50:17;6.72;;;2.55;;
67274;SDS011;55463;52.324;5.122;2023-07-31T12:52:43;10.40;;;2.65;;
67274;SDS011;55463;52.324;5.122;2023-07-31T12:55:08;9.90;;;3.55;;
67274;SDS011;55463;52.324;5.122;2023-07-31T12:57:39;11.50;;;2.50;;
67274;SDS011;55463;52.324;5.122;2023-07-31T13:00:22;8.48;;;2.50;;
67274;SDS011;55463;52.324;5.122;2023-07-31T13:02:48;9.30;;;2.58;;
67274;SDS011;55463;52.324;5.122;2023-07-31T13:05:13;8.23;;;2.22;;
67274;SDS011;55463;52.324;5.122;2023-07-31T13:07:39;6.10;;;2.20;;
67274;SDS011;55463;52.324;5.122;2023-07-31T13:10:14;9.18;;;2.42;;
67274;SDS011;55463;52.324;5.122;2023-07-31T13:12:42;8.10;;;2.53;;
67274;SDS011;55463;52.324;5.122;2023-07-31T13:15:08;8.73;;;2.58;;
67274;SDS011;55463;52.324;5.122;2023-07-31T13:17:33;7.75;;;2.13;;
67274;SDS011;55463;52.324;5.122;2023-07-31T13:20:00;7.18;;;2.25;;
67274;SDS011;55463;52.324;5.122;2023-07-31T13:22:44;4.25;;;2.30;;
67274;SDS011;55463;52.324;5.122;2023-07-31T13:25:11;6.55;;;1.92;;
67274;SDS011;55463;52.324;5.122;2023-07-31T13:27:37;6.38;;;2.20;;
67274;SDS011;55463;52.324;5.122;2023-07-31T13:30:02;7.05;;;2.30;;
67274;SDS011;55463;52.324;5.122;2023-07-31T13:32:28;8.80;;;2.58;;
67274;SDS011;55463;52.324;5.122;2023-07-31T13:35:00;6.38;;;2.30;;
67274;SDS011;55463;52.324;5.122;2023-07-31T13:37:26;9.40;;;2.70;;
67274;SDS011;55463;52.324;5.122;2023-07-31T13:39:51;12.98;;;2.42;;
67274;SDS011;55463;52.324;5.122;2023-07-31T13:42:16;7.68;;;2.42;;
67274;SDS011;55463;52.324;5.122;2023-07-31T13:44:42;5.57;;;2.33;;
67274;SDS011;55463;52.324;5.122;2023-07-31T13:47:08;7.60;;;2.38;;
67274;SDS011;55463;52.324;5.122;2023-07-31T13:49:35;7.32;;;2.30;;
67274;SDS011;55463;52.324;5.122;2023-07-31T13:52:01;9.07;;;2.80;;
67274;SDS011;55463;52.324;5.122;2023-07-31T13:54:30;5.82;;;2.55;;
67274;SDS011;55463;52.324;5.122;2023-07-31T13:56:56;3.90;;;2.20;;
67274;SDS011;55463;52.324;5.122;2023-07-31T13:59:21;5.40;;;2.50;;
67274;SDS011;55463;52.324;5.122;2023-07-31T14:01:47;8.10;;;2.50;;
67274;SDS011;55463;52.324;5.122;2023-07-31T14:04:15;9.63;;;2.72;;
67274;SDS011;55463;52.324;5.122;2023-07-31T14:06:42;8.87;;;2.40;;
67274;SDS011;55463;52.324;5.122;2023-07-31T14:09:08;4.53;;;2.20;;
67274;SDS011;55463;52.324;5.122;2023-07-31T14:11:33;4.35;;;1.80;;
67274;SDS011;55463;52.324;5.122;2023-07-31T14:13:59;3.42;;;1.45;;
67274;SDS011;55463;52.324;5.122;2023-07-31T14:16:26;4.82;;;1.50;;
67274;SDS011;55463;52.324;5.122;2023-07-31T14:18:52;2.83;;;1.30;;
67274;SDS011;55463;52.324;5.122;2023-07-31T14:21:18;2.85;;;1.30;;
67274;SDS011;55463;52.324;5.122;2023-07-31T14:23:44;2.65;;;1.30;;
67274;SDS011;55463;52.324;5.122;2023-07-31T14:26:10;2.47;;;1.48;;
67274;SDS011;55463;52.324;5.122;2023-07-31T14:28:35;3.47;;;1.80;;
67274;SDS011;55463;52.324;5.122;2023-07-31T14:31:00;4.60;;;2.13;;
67274;SDS011;55463;52.324;5.122;2023-07-31T14:33:26;3.22;;;1.63;;
67274;SDS011;55463;52.324;5.122;2023-07-31T14:35:51;3.83;;;2.28;;
67274;SDS011;55463;52.324;5.122;2023-07-31T14:38:17;6.63;;;2.42;;
67274;SDS011;55463;52.324;5.122;2023-07-31T14:40:42;5.97;;;2.20;;
67274;SDS011;55463;52.324;5.122;2023-07-31T14:43:08;8.52;;;2.30;;
67274;SDS011;55463;52.324;5.122;2023-07-31T14:45:33;5.85;;;2.30;;
67274;SDS011;55463;52.324;5.122;2023-07-31T14:47:59;4.35;;;2.33;;
67274;SDS011;55463;52.324;5.122;2023-07-31T14:50:25;4.38;;;2.42;;
67274;SDS011;55463;52.324;5.122;2023-07-31T14:52:50;6.50;;;2.33;;
67274;SDS011;55463;52.324;5.122;2023-07-31T14:55:19;6.88;;;2.40;;